Aérodrome :
LOGIN :

S'inscrire | Disclaimer

   EN    FR    IT 

 










Légende :    VFR   VFR Marginal   IFR   IFR Intensif   IFR Très Intensif
Visi : 
Plafond : 
>= 8 km
>= 3000ft
5 à 8 km
1000 à 3000 ft
1500m à 5 km
500 à 1000 ft
800 à 1500m
200 à 500 ft
< 800m
< 200 ft
Symboles :   Orages  Brouillard  Fortes neiges  Fortes précipitations  Vent > 20 kt
SIGMETs :   Divers  Orages  Givrage  Turbulence  Onde Orograph.  Cendres Volcan.






- Altitude de l'aérodrome : 48 ft
- Code IATA : PSR


LIBP - Abruzzo Pescara

DERNIER METAR :
  • 091750Z 23005KT CAVOK 15/05 Q1006

METARs EXPIRÉS :
  • 091650Z 23003KT 190V250 CAVOK 16/05 Q1005
  • 091550Z 19008KT CAVOK 16/05 Q1005

TAF TAF LIBP
Valide du 09 à 18h jusqu'au 10 à 18h UTC


091700Z 0918/1018 VRB05KT 9999 SCT040
BECMG 1000/1002 33010KT
TEMPO 1006/1018 4000 TSRA
BECMG 1007/1009 03020G30KT



MET'MAP, la Météo Aéronautique d'un coup d'oeil ! - Copyright ORBIFLY Décembre 2007 - Disclaimer

ORBIFLY MET'MAP TEAM :

Programmation & Développement : Alexandra Zaïnal
Sur une idée originale de : Baudouin d'Aumeries
Assistance à la programmation : Marc-Olivier Méhu
Soutien technique & logistique : Manuel Goepfert

Contact : metmap@orbifly.com




SOURCES & CREDITS :

   NOAA